sensor_id;sensor_type;location;lat;lon;timestamp;P1;durP1;ratioP1;P2;durP2;ratioP2
59587;SDS011;45412;54.472;18.464;2022-07-23T00:00:06;10.30;;;5.70;;
59587;SDS011;45412;54.472;18.464;2022-07-23T00:03:03;10.80;;;5.80;;
59587;SDS011;45412;54.472;18.464;2022-07-23T00:05:51;13.50;;;6.20;;
59587;SDS011;45412;54.472;18.464;2022-07-23T00:08:39;10.40;;;5.80;;
59587;SDS011;45412;54.472;18.464;2022-07-23T00:11:28;11.30;;;6.20;;
59587;SDS011;45412;54.472;18.464;2022-07-23T00:14:15;13.00;;;6.20;;
59587;SDS011;45412;54.472;18.464;2022-07-23T00:17:04;13.00;;;6.40;;
59587;SDS011;45412;54.472;18.464;2022-07-23T00:19:52;11.60;;;6.00;;
59587;SDS011;45412;54.472;18.464;2022-07-23T00:22:48;13.40;;;6.50;;
59587;SDS011;45412;54.472;18.464;2022-07-23T00:25:38;12.20;;;5.70;;
59587;SDS011;45412;54.472;18.464;2022-07-23T00:28:26;13.30;;;5.70;;
59587;SDS011;45412;54.472;18.464;2022-07-23T00:31:14;12.20;;;6.10;;
59587;SDS011;45412;54.472;18.464;2022-07-23T00:34:03;12.20;;;6.40;;
59587;SDS011;45412;54.472;18.464;2022-07-23T00:36:51;12.00;;;6.30;;
59587;SDS011;45412;54.472;18.464;2022-07-23T00:39:41;13.50;;;6.90;;
59587;SDS011;45412;54.472;18.464;2022-07-23T00:42:31;11.20;;;6.50;;
59587;SDS011;45412;54.472;18.464;2022-07-23T00:45:20;13.70;;;6.60;;
59587;SDS011;45412;54.472;18.464;2022-07-23T00:48:08;11.70;;;6.40;;
59587;SDS011;45412;54.472;18.464;2022-07-23T00:50:56;13.60;;;6.30;;
59587;SDS011;45412;54.472;18.464;2022-07-23T00:53:45;13.00;;;6.00;;
59587;SDS011;45412;54.472;18.464;2022-07-23T00:56:33;11.50;;;5.70;;
59587;SDS011;45412;54.472;18.464;2022-07-23T00:59:22;12.80;;;6.60;;
59587;SDS011;45412;54.472;18.464;2022-07-23T01:02:10;13.20;;;6.30;;
59587;SDS011;45412;54.472;18.464;2022-07-23T01:04:58;13.70;;;6.10;;
59587;SDS011;45412;54.472;18.464;2022-07-23T01:07:46;12.70;;;6.40;;
59587;SDS011;45412;54.472;18.464;2022-07-23T01:10:38;10.70;;;6.30;;
59587;SDS011;45412;54.472;18.464;2022-07-23T01:13:26;11.50;;;5.90;;
59587;SDS011;45412;54.472;18.464;2022-07-23T01:16:14;11.90;;;5.60;;
59587;SDS011;45412;54.472;18.464;2022-07-23T01:19:02;11.20;;;6.10;;
59587;SDS011;45412;54.472;18.464;2022-07-23T01:21:54;11.60;;;5.90;;
59587;SDS011;45412;54.472;18.464;2022-07-23T01:24:45;13.40;;;6.30;;
59587;SDS011;45412;54.472;18.464;2022-07-23T01:27:36;15.80;;;8.30;;
59587;SDS011;45412;54.472;18.464;2022-07-23T01:30:25;19.50;;;11.30;;
59587;SDS011;45412;54.472;18.464;2022-07-23T01:33:14;17.00;;;9.90;;
59587;SDS011;45412;54.472;18.464;2022-07-23T01:36:03;17.40;;;9.10;;
59587;SDS011;45412;54.472;18.464;2022-07-23T01:38:51;14.00;;;8.40;;
59587;SDS011;45412;54.472;18.464;2022-07-23T01:41:41;15.10;;;8.10;;
59587;SDS011;45412;54.472;18.464;2022-07-23T01:44:32;13.40;;;7.60;;
59587;SDS011;45412;54.472;18.464;2022-07-23T01:47:20;14.10;;;7.40;;
59587;SDS011;45412;54.472;18.464;2022-07-23T01:50:12;12.10;;;7.30;;
59587;SDS011;45412;54.472;18.464;2022-07-23T01:53:04;11.30;;;6.20;;
59587;SDS011;45412;54.472;18.464;2022-07-23T01:55:55;11.80;;;6.70;;
59587;SDS011;45412;54.472;18.464;2022-07-23T01:58:43;11.90;;;6.30;;
59587;SDS011;45412;54.472;18.464;2022-07-23T02:01:32;10.90;;;5.80;;
59587;SDS011;45412;54.472;18.464;2022-07-23T02:04:20;11.30;;;6.40;;
59587;SDS011;45412;54.472;18.464;2022-07-23T02:07:10;12.30;;;6.70;;
59587;SDS011;45412;54.472;18.464;2022-07-23T02:09:58;15.20;;;7.70;;
59587;SDS011;45412;54.472;18.464;2022-07-23T02:12:46;14.60;;;7.10;;
59587;SDS011;45412;54.472;18.464;2022-07-23T02:15:35;13.90;;;7.10;;
59587;SDS011;45412;54.472;18.464;2022-07-23T02:18:23;14.40;;;8.10;;
59587;SDS011;45412;54.472;18.464;2022-07-23T02:21:11;13.80;;;7.70;;
59587;SDS011;45412;54.472;18.464;2022-07-23T02:24:00;11.70;;;7.20;;
59587;SDS011;45412;54.472;18.464;2022-07-23T02:26:48;15.80;;;6.70;;
59587;SDS011;45412;54.472;18.464;2022-07-23T02:29:37;14.70;;;7.50;;
59587;SDS011;45412;54.472;18.464;2022-07-23T02:32:25;11.70;;;7.20;;
59587;SDS011;45412;54.472;18.464;2022-07-23T02:35:13;12.10;;;7.40;;
59587;SDS011;45412;54.472;18.464;2022-07-23T02:38:01;14.80;;;7.40;;
59587;SDS011;45412;54.472;18.464;2022-07-23T02:40:50;13.30;;;7.50;;
59587;SDS011;45412;54.472;18.464;2022-07-23T02:43:39;14.00;;;7.80;;
59587;SDS011;45412;54.472;18.464;2022-07-23T02:46:27;16.10;;;7.90;;
59587;SDS011;45412;54.472;18.464;2022-07-23T02:49:16;13.50;;;7.20;;
59587;SDS011;45412;54.472;18.464;2022-07-23T02:52:05;13.40;;;7.60;;
59587;SDS011;45412;54.472;18.464;2022-07-23T02:54:54;12.00;;;7.00;;
59587;SDS011;45412;54.472;18.464;2022-07-23T02:57:42;14.90;;;7.00;;
59587;SDS011;45412;54.472;18.464;2022-07-23T03:00:31;15.00;;;7.70;;
59587;SDS011;45412;54.472;18.464;2022-07-23T03:03:19;14.00;;;6.60;;
59587;SDS011;45412;54.472;18.464;2022-07-23T03:06:08;15.10;;;6.50;;
59587;SDS011;45412;54.472;18.464;2022-07-23T03:08:58;12.80;;;6.30;;
59587;SDS011;45412;54.472;18.464;2022-07-23T03:11:46;13.60;;;6.90;;
59587;SDS011;45412;54.472;18.464;2022-07-23T03:14:34;14.60;;;6.90;;
59587;SDS011;45412;54.472;18.464;2022-07-23T03:17:23;14.00;;;8.10;;
59587;SDS011;45412;54.472;18.464;2022-07-23T03:20:11;14.10;;;6.70;;
59587;SDS011;45412;54.472;18.464;2022-07-23T03:23:00;14.50;;;7.20;;
59587;SDS011;45412;54.472;18.464;2022-07-23T03:25:48;14.80;;;7.60;;
59587;SDS011;45412;54.472;18.464;2022-07-23T03:28:41;14.90;;;8.10;;
59587;SDS011;45412;54.472;18.464;2022-07-23T03:31:30;12.40;;;7.20;;
59587;SDS011;45412;54.472;18.464;2022-07-23T03:34:18;12.10;;;6.50;;
59587;SDS011;45412;54.472;18.464;2022-07-23T03:37:07;15.00;;;7.80;;
59587;SDS011;45412;54.472;18.464;2022-07-23T03:39:55;12.40;;;7.10;;
59587;SDS011;45412;54.472;18.464;2022-07-23T03:42:46;14.90;;;7.20;;
59587;SDS011;45412;54.472;18.464;2022-07-23T03:45:34;15.20;;;6.80;;
59587;SDS011;45412;54.472;18.464;2022-07-23T03:48:22;13.80;;;6.70;;
59587;SDS011;45412;54.472;18.464;2022-07-23T03:51:10;14.30;;;7.50;;
59587;SDS011;45412;54.472;18.464;2022-07-23T03:53:59;12.80;;;7.00;;
59587;SDS011;45412;54.472;18.464;2022-07-23T03:56:47;13.40;;;6.10;;
59587;SDS011;45412;54.472;18.464;2022-07-23T03:59:35;11.50;;;5.90;;
59587;SDS011;45412;54.472;18.464;2022-07-23T04:02:23;12.30;;;6.00;;
59587;SDS011;45412;54.472;18.464;2022-07-23T04:05:12;13.00;;;6.10;;
59587;SDS011;45412;54.472;18.464;2022-07-23T04:08:01;14.00;;;6.00;;
59587;SDS011;45412;54.472;18.464;2022-07-23T04:10:49;12.40;;;6.20;;
59587;SDS011;45412;54.472;18.464;2022-07-23T04:13:37;14.80;;;6.20;;
59587;SDS011;45412;54.472;18.464;2022-07-23T04:16:25;13.50;;;6.00;;
59587;SDS011;45412;54.472;18.464;2022-07-23T04:19:14;12.00;;;5.70;;
59587;SDS011;45412;54.472;18.464;2022-07-23T04:22:12;13.10;;;6.10;;
59587;SDS011;45412;54.472;18.464;2022-07-23T04:25:02;11.00;;;6.10;;
59587;SDS011;45412;54.472;18.464;2022-07-23T04:27:50;13.30;;;5.90;;
59587;SDS011;45412;54.472;18.464;2022-07-23T04:30:38;11.10;;;5.40;;
59587;SDS011;45412;54.472;18.464;2022-07-23T04:33:27;15.20;;;5.90;;
59587;SDS011;45412;54.472;18.464;2022-07-23T04:36:16;12.40;;;5.70;;
59587;SDS011;45412;54.472;18.464;2022-07-23T04:39:05;14.30;;;5.50;;
59587;SDS011;45412;54.472;18.464;2022-07-23T04:41:54;10.90;;;5.80;;
59587;SDS011;45412;54.472;18.464;2022-07-23T04:44:43;13.70;;;5.80;;
59587;SDS011;45412;54.472;18.464;2022-07-23T04:47:31;15.90;;;6.90;;
59587;SDS011;45412;54.472;18.464;2022-07-23T04:50:21;13.20;;;6.10;;
59587;SDS011;45412;54.472;18.464;2022-07-23T04:53:11;12.90;;;5.60;;
59587;SDS011;45412;54.472;18.464;2022-07-23T04:56:00;13.50;;;6.30;;
59587;SDS011;45412;54.472;18.464;2022-07-23T04:58:49;16.70;;;6.00;;
59587;SDS011;45412;54.472;18.464;2022-07-23T05:01:37;15.10;;;6.00;;
59587;SDS011;45412;54.472;18.464;2022-07-23T05:04:25;12.70;;;5.70;;
59587;SDS011;45412;54.472;18.464;2022-07-23T05:07:13;12.40;;;5.30;;
59587;SDS011;45412;54.472;18.464;2022-07-23T05:10:01;13.00;;;5.60;;
59587;SDS011;45412;54.472;18.464;2022-07-23T05:12:50;12.60;;;5.80;;
59587;SDS011;45412;54.472;18.464;2022-07-23T05:15:38;10.20;;;5.20;;
59587;SDS011;45412;54.472;18.464;2022-07-23T05:18:26;12.30;;;5.30;;
59587;SDS011;45412;54.472;18.464;2022-07-23T05:21:14;12.50;;;5.30;;
59587;SDS011;45412;54.472;18.464;2022-07-23T05:24:04;10.70;;;4.90;;
59587;SDS011;45412;54.472;18.464;2022-07-23T05:26:52;10.60;;;4.70;;
59587;SDS011;45412;54.472;18.464;2022-07-23T05:29:41;15.20;;;6.90;;
59587;SDS011;45412;54.472;18.464;2022-07-23T05:32:31;10.30;;;4.80;;
59587;SDS011;45412;54.472;18.464;2022-07-23T05:35:27;12.00;;;3.60;;
59587;SDS011;45412;54.472;18.464;2022-07-23T05:38:38;11.00;;;3.90;;
59587;SDS011;45412;54.472;18.464;2022-07-23T05:41:27;9.80;;;3.40;;
59587;SDS011;45412;54.472;18.464;2022-07-23T05:44:15;11.70;;;5.40;;
59587;SDS011;45412;54.472;18.464;2022-07-23T05:47:04;13.00;;;4.30;;
59587;SDS011;45412;54.472;18.464;2022-07-23T05:49:52;12.00;;;3.20;;
59587;SDS011;45412;54.472;18.464;2022-07-23T05:52:54;8.80;;;4.00;;
59587;SDS011;45412;54.472;18.464;2022-07-23T05:56:02;9.30;;;3.60;;
59587;SDS011;45412;54.472;18.464;2022-07-23T05:58:51;9.70;;;3.20;;
59587;SDS011;45412;54.472;18.464;2022-07-23T06:01:39;12.20;;;3.00;;
59587;SDS011;45412;54.472;18.464;2022-07-23T06:04:30;9.30;;;3.30;;
59587;SDS011;45412;54.472;18.464;2022-07-23T06:07:38;8.30;;;2.90;;
59587;SDS011;45412;54.472;18.464;2022-07-23T06:10:27;9.50;;;3.10;;
59587;SDS011;45412;54.472;18.464;2022-07-23T06:13:17;8.50;;;2.70;;
59587;SDS011;45412;54.472;18.464;2022-07-23T06:16:06;9.80;;;3.00;;
59587;SDS011;45412;54.472;18.464;2022-07-23T06:18:55;8.80;;;2.80;;
59587;SDS011;45412;54.472;18.464;2022-07-23T06:21:45;8.80;;;2.60;;
59587;SDS011;45412;54.472;18.464;2022-07-23T06:24:37;8.40;;;2.50;;
59587;SDS011;45412;54.472;18.464;2022-07-23T06:27:25;8.00;;;2.50;;
59587;SDS011;45412;54.472;18.464;2022-07-23T06:30:13;8.70;;;2.70;;
59587;SDS011;45412;54.472;18.464;2022-07-23T06:33:05;7.00;;;2.20;;
59587;SDS011;45412;54.472;18.464;2022-07-23T06:35:53;9.60;;;2.70;;
59587;SDS011;45412;54.472;18.464;2022-07-23T06:38:41;8.20;;;2.30;;
59587;SDS011;45412;54.472;18.464;2022-07-23T06:41:31;8.30;;;2.70;;
59587;SDS011;45412;54.472;18.464;2022-07-23T06:44:19;8.20;;;2.30;;
59587;SDS011;45412;54.472;18.464;2022-07-23T06:47:08;7.80;;;2.40;;
59587;SDS011;45412;54.472;18.464;2022-07-23T06:49:57;8.60;;;2.40;;
59587;SDS011;45412;54.472;18.464;2022-07-23T06:52:49;9.40;;;2.50;;
59587;SDS011;45412;54.472;18.464;2022-07-23T06:55:37;7.90;;;2.40;;
59587;SDS011;45412;54.472;18.464;2022-07-23T06:58:27;9.70;;;2.40;;
59587;SDS011;45412;54.472;18.464;2022-07-23T07:01:16;9.00;;;2.40;;
59587;SDS011;45412;54.472;18.464;2022-07-23T07:04:04;8.70;;;2.50;;
59587;SDS011;45412;54.472;18.464;2022-07-23T07:06:54;9.20;;;3.10;;
59587;SDS011;45412;54.472;18.464;2022-07-23T07:09:42;9.20;;;2.20;;
59587;SDS011;45412;54.472;18.464;2022-07-23T07:12:34;8.00;;;2.30;;
59587;SDS011;45412;54.472;18.464;2022-07-23T07:15:22;10.10;;;2.70;;
59587;SDS011;45412;54.472;18.464;2022-07-23T07:18:10;8.20;;;2.70;;
59587;SDS011;45412;54.472;18.464;2022-07-23T07:20:58;9.00;;;3.80;;
59587;SDS011;45412;54.472;18.464;2022-07-23T07:23:48;7.80;;;3.20;;
59587;SDS011;45412;54.472;18.464;2022-07-23T07:26:36;9.40;;;3.50;;
59587;SDS011;45412;54.472;18.464;2022-07-23T07:29:26;9.30;;;3.00;;
59587;SDS011;45412;54.472;18.464;2022-07-23T07:32:16;9.70;;;3.50;;
59587;SDS011;45412;54.472;18.464;2022-07-23T07:35:24;7.70;;;2.80;;
59587;SDS011;45412;54.472;18.464;2022-07-23T07:38:13;10.90;;;3.20;;
59587;SDS011;45412;54.472;18.464;2022-07-23T07:41:01;8.30;;;2.90;;
59587;SDS011;45412;54.472;18.464;2022-07-23T07:43:50;8.70;;;3.00;;
59587;SDS011;45412;54.472;18.464;2022-07-23T07:46:38;8.20;;;2.90;;
59587;SDS011;45412;54.472;18.464;2022-07-23T07:49:26;8.00;;;3.00;;
59587;SDS011;45412;54.472;18.464;2022-07-23T07:52:39;7.50;;;3.00;;
59587;SDS011;45412;54.472;18.464;2022-07-23T07:55:29;9.30;;;3.30;;
59587;SDS011;45412;54.472;18.464;2022-07-23T07:58:18;9.80;;;4.00;;
59587;SDS011;45412;54.472;18.464;2022-07-23T08:01:06;7.50;;;3.30;;
59587;SDS011;45412;54.472;18.464;2022-07-23T08:03:55;9.50;;;3.10;;
59587;SDS011;45412;54.472;18.464;2022-07-23T08:06:43;9.10;;;3.60;;
59587;SDS011;45412;54.472;18.464;2022-07-23T08:09:33;10.00;;;4.30;;
59587;SDS011;45412;54.472;18.464;2022-07-23T08:12:20;9.30;;;3.10;;
59587;SDS011;45412;54.472;18.464;2022-07-23T08:15:09;9.90;;;3.40;;
59587;SDS011;45412;54.472;18.464;2022-07-23T08:18:01;9.60;;;3.10;;
59587;SDS011;45412;54.472;18.464;2022-07-23T08:20:49;8.70;;;3.00;;
59587;SDS011;45412;54.472;18.464;2022-07-23T08:23:37;7.50;;;2.90;;
59587;SDS011;45412;54.472;18.464;2022-07-23T08:26:25;7.70;;;3.20;;
59587;SDS011;45412;54.472;18.464;2022-07-23T08:29:13;8.30;;;2.80;;
59587;SDS011;45412;54.472;18.464;2022-07-23T08:32:01;10.40;;;3.40;;
59587;SDS011;45412;54.472;18.464;2022-07-23T08:35:17;9.20;;;4.50;;
59587;SDS011;45412;54.472;18.464;2022-07-23T08:38:10;10.00;;;3.90;;
59587;SDS011;45412;54.472;18.464;2022-07-23T08:40:58;7.60;;;2.80;;
59587;SDS011;45412;54.472;18.464;2022-07-23T08:43:46;10.00;;;4.00;;
59587;SDS011;45412;54.472;18.464;2022-07-23T08:46:38;8.20;;;3.00;;
59587;SDS011;45412;54.472;18.464;2022-07-23T08:49:31;8.20;;;3.10;;
59587;SDS011;45412;54.472;18.464;2022-07-23T08:52:20;9.50;;;3.10;;
59587;SDS011;45412;54.472;18.464;2022-07-23T08:55:15;9.60;;;3.50;;
59587;SDS011;45412;54.472;18.464;2022-07-23T08:58:07;8.60;;;2.90;;
59587;SDS011;45412;54.472;18.464;2022-07-23T09:00:59;8.30;;;3.00;;
59587;SDS011;45412;54.472;18.464;2022-07-23T09:03:53;9.00;;;2.90;;
59587;SDS011;45412;54.472;18.464;2022-07-23T09:06:42;10.00;;;3.10;;
59587;SDS011;45412;54.472;18.464;2022-07-23T09:09:30;7.90;;;2.70;;
59587;SDS011;45412;54.472;18.464;2022-07-23T09:12:19;9.30;;;2.90;;
59587;SDS011;45412;54.472;18.464;2022-07-23T09:15:08;7.70;;;2.70;;
59587;SDS011;45412;54.472;18.464;2022-07-23T09:17:56;10.30;;;2.80;;
59587;SDS011;45412;54.472;18.464;2022-07-23T09:20:45;8.60;;;2.90;;
59587;SDS011;45412;54.472;18.464;2022-07-23T09:26:48;8.00;;;3.00;;
59587;SDS011;45412;54.472;18.464;2022-07-23T09:29:38;9.20;;;3.10;;
59587;SDS011;45412;54.472;18.464;2022-07-23T09:32:31;9.80;;;3.40;;
59587;SDS011;45412;54.472;18.464;2022-07-23T09:35:20;8.80;;;2.90;;
59587;SDS011;45412;54.472;18.464;2022-07-23T09:38:08;8.10;;;3.10;;
59587;SDS011;45412;54.472;18.464;2022-07-23T09:41:10;8.60;;;3.20;;
59587;SDS011;45412;54.472;18.464;2022-07-23T09:44:01;8.50;;;3.30;;
59587;SDS011;45412;54.472;18.464;2022-07-23T09:46:59;8.70;;;3.30;;
59587;SDS011;45412;54.472;18.464;2022-07-23T09:50:01;10.50;;;3.50;;
59587;SDS011;45412;54.472;18.464;2022-07-23T09:52:49;10.40;;;4.00;;
59587;SDS011;45412;54.472;18.464;2022-07-23T09:55:38;9.90;;;5.10;;
59587;SDS011;45412;54.472;18.464;2022-07-23T09:58:26;8.50;;;3.50;;
59587;SDS011;45412;54.472;18.464;2022-07-23T10:01:16;8.30;;;3.40;;
59587;SDS011;45412;54.472;18.464;2022-07-23T10:04:04;9.00;;;3.50;;
59587;SDS011;45412;54.472;18.464;2022-07-23T10:07:23;9.90;;;3.80;;
59587;SDS011;45412;54.472;18.464;2022-07-23T10:10:33;9.40;;;3.20;;
59587;SDS011;45412;54.472;18.464;2022-07-23T10:13:44;8.70;;;3.40;;
59587;SDS011;45412;54.472;18.464;2022-07-23T10:17:09;10.20;;;3.80;;
59587;SDS011;45412;54.472;18.464;2022-07-23T10:19:58;10.40;;;3.50;;
59587;SDS011;45412;54.472;18.464;2022-07-23T10:26:19;10.00;;;3.80;;
59587;SDS011;45412;54.472;18.464;2022-07-23T10:29:52;10.20;;;3.70;;
59587;SDS011;45412;54.472;18.464;2022-07-23T10:39:34;9.80;;;3.90;;
59587;SDS011;45412;54.472;18.464;2022-07-23T10:42:35;8.90;;;4.10;;
59587;SDS011;45412;54.472;18.464;2022-07-23T10:45:29;11.40;;;4.20;;
59587;SDS011;45412;54.472;18.464;2022-07-23T10:48:23;9.80;;;4.00;;
59587;SDS011;45412;54.472;18.464;2022-07-23T10:51:19;10.40;;;3.50;;
59587;SDS011;45412;54.472;18.464;2022-07-23T10:54:20;8.60;;;3.80;;
59587;SDS011;45412;54.472;18.464;2022-07-23T10:57:10;9.30;;;3.80;;
59587;SDS011;45412;54.472;18.464;2022-07-23T11:00:27;9.50;;;4.10;;
59587;SDS011;45412;54.472;18.464;2022-07-23T11:03:34;9.10;;;3.80;;
59587;SDS011;45412;54.472;18.464;2022-07-23T11:10:03;8.80;;;4.00;;
59587;SDS011;45412;54.472;18.464;2022-07-23T11:12:54;10.50;;;4.40;;
59587;SDS011;45412;54.472;18.464;2022-07-23T11:18:57;9.00;;;4.20;;
59587;SDS011;45412;54.472;18.464;2022-07-23T11:21:56;8.50;;;3.90;;
59587;SDS011;45412;54.472;18.464;2022-07-23T11:24:51;13.50;;;4.00;;
59587;SDS011;45412;54.472;18.464;2022-07-23T11:28:18;10.90;;;3.90;;
59587;SDS011;45412;54.472;18.464;2022-07-23T11:31:28;10.20;;;4.30;;
59587;SDS011;45412;54.472;18.464;2022-07-23T11:40:24;12.50;;;4.20;;
59587;SDS011;45412;54.472;18.464;2022-07-23T11:43:14;11.40;;;4.00;;
59587;SDS011;45412;54.472;18.464;2022-07-23T11:46:02;8.10;;;3.80;;
59587;SDS011;45412;54.472;18.464;2022-07-23T11:49:01;8.40;;;3.70;;
59587;SDS011;45412;54.472;18.464;2022-07-23T11:55:07;9.90;;;4.20;;
59587;SDS011;45412;54.472;18.464;2022-07-23T11:57:57;10.40;;;4.40;;
59587;SDS011;45412;54.472;18.464;2022-07-23T12:00:47;12.00;;;4.70;;
59587;SDS011;45412;54.472;18.464;2022-07-23T12:03:36;10.40;;;4.70;;
59587;SDS011;45412;54.472;18.464;2022-07-23T12:06:24;9.60;;;4.70;;
59587;SDS011;45412;54.472;18.464;2022-07-23T12:09:12;10.30;;;4.50;;
59587;SDS011;45412;54.472;18.464;2022-07-23T12:12:14;11.60;;;5.00;;
59587;SDS011;45412;54.472;18.464;2022-07-23T12:15:07;9.00;;;4.80;;
59587;SDS011;45412;54.472;18.464;2022-07-23T12:18:00;9.50;;;4.60;;
59587;SDS011;45412;54.472;18.464;2022-07-23T12:21:05;10.10;;;4.60;;
59587;SDS011;45412;54.472;18.464;2022-07-23T12:24:07;11.00;;;5.60;;
59587;SDS011;45412;54.472;18.464;2022-07-23T12:27:11;14.00;;;5.10;;
59587;SDS011;45412;54.472;18.464;2022-07-23T12:30:17;11.30;;;4.40;;
59587;SDS011;45412;54.472;18.464;2022-07-23T12:33:10;9.80;;;4.20;;
59587;SDS011;45412;54.472;18.464;2022-07-23T12:36:04;11.40;;;5.60;;
59587;SDS011;45412;54.472;18.464;2022-07-23T12:38:54;10.00;;;4.90;;
59587;SDS011;45412;54.472;18.464;2022-07-23T12:41:52;9.00;;;4.80;;
59587;SDS011;45412;54.472;18.464;2022-07-23T12:44:41;11.90;;;5.30;;
59587;SDS011;45412;54.472;18.464;2022-07-23T12:47:56;10.90;;;5.20;;
59587;SDS011;45412;54.472;18.464;2022-07-23T12:50:57;12.20;;;5.50;;
59587;SDS011;45412;54.472;18.464;2022-07-23T12:53:57;10.00;;;5.30;;
59587;SDS011;45412;54.472;18.464;2022-07-23T12:56:51;11.60;;;5.40;;
59587;SDS011;45412;54.472;18.464;2022-07-23T12:59:40;10.20;;;5.00;;
59587;SDS011;45412;54.472;18.464;2022-07-23T13:02:45;11.60;;;6.00;;
59587;SDS011;45412;54.472;18.464;2022-07-23T13:05:33;11.40;;;5.40;;
59587;SDS011;45412;54.472;18.464;2022-07-23T13:08:22;9.40;;;5.20;;
59587;SDS011;45412;54.472;18.464;2022-07-23T13:11:11;10.40;;;4.80;;
59587;SDS011;45412;54.472;18.464;2022-07-23T13:14:00;10.00;;;4.50;;
59587;SDS011;45412;54.472;18.464;2022-07-23T13:16:53;9.40;;;4.60;;
59587;SDS011;45412;54.472;18.464;2022-07-23T13:19:43;9.30;;;4.70;;
59587;SDS011;45412;54.472;18.464;2022-07-23T13:22:33;9.20;;;5.00;;
59587;SDS011;45412;54.472;18.464;2022-07-23T13:25:24;9.20;;;4.70;;
59587;SDS011;45412;54.472;18.464;2022-07-23T13:28:13;9.30;;;4.70;;
59587;SDS011;45412;54.472;18.464;2022-07-23T13:31:03;10.30;;;5.20;;
59587;SDS011;45412;54.472;18.464;2022-07-23T13:33:51;10.40;;;5.30;;
59587;SDS011;45412;54.472;18.464;2022-07-23T13:36:40;9.80;;;5.40;;
59587;SDS011;45412;54.472;18.464;2022-07-23T13:39:28;10.30;;;5.50;;
59587;SDS011;45412;54.472;18.464;2022-07-23T13:42:23;11.80;;;5.70;;
59587;SDS011;45412;54.472;18.464;2022-07-23T13:45:14;11.50;;;5.10;;
59587;SDS011;45412;54.472;18.464;2022-07-23T13:48:03;9.30;;;5.00;;
59587;SDS011;45412;54.472;18.464;2022-07-23T13:50:53;10.80;;;5.20;;
59587;SDS011;45412;54.472;18.464;2022-07-23T13:53:42;9.50;;;5.10;;
59587;SDS011;45412;54.472;18.464;2022-07-23T13:56:30;11.50;;;5.40;;
59587;SDS011;45412;54.472;18.464;2022-07-23T13:59:18;10.70;;;4.50;;
59587;SDS011;45412;54.472;18.464;2022-07-23T14:02:06;9.60;;;5.10;;
59587;SDS011;45412;54.472;18.464;2022-07-23T14:05:10;10.00;;;5.40;;
59587;SDS011;45412;54.472;18.464;2022-07-23T14:07:58;9.90;;;6.40;;
59587;SDS011;45412;54.472;18.464;2022-07-23T14:10:46;12.00;;;6.60;;
59587;SDS011;45412;54.472;18.464;2022-07-23T14:13:34;13.50;;;7.90;;
59587;SDS011;45412;54.472;18.464;2022-07-23T14:16:22;9.90;;;5.90;;
59587;SDS011;45412;54.472;18.464;2022-07-23T14:19:11;13.10;;;7.30;;
59587;SDS011;45412;54.472;18.464;2022-07-23T14:21:58;11.00;;;5.50;;
59587;SDS011;45412;54.472;18.464;2022-07-23T14:24:47;9.50;;;5.40;;
59587;SDS011;45412;54.472;18.464;2022-07-23T14:27:37;9.90;;;5.70;;
59587;SDS011;45412;54.472;18.464;2022-07-23T14:30:27;10.20;;;5.60;;
59587;SDS011;45412;54.472;18.464;2022-07-23T14:33:21;12.50;;;5.70;;
59587;SDS011;45412;54.472;18.464;2022-07-23T14:36:12;9.40;;;5.30;;
59587;SDS011;45412;54.472;18.464;2022-07-23T14:39:02;9.70;;;5.70;;
59587;SDS011;45412;54.472;18.464;2022-07-23T14:41:52;9.10;;;5.30;;
59587;SDS011;45412;54.472;18.464;2022-07-23T14:44:40;8.30;;;5.00;;
59587;SDS011;45412;54.472;18.464;2022-07-23T14:47:30;9.60;;;5.60;;
59587;SDS011;45412;54.472;18.464;2022-07-23T14:50:18;11.20;;;5.80;;
59587;SDS011;45412;54.472;18.464;2022-07-23T14:53:06;11.40;;;5.90;;
59587;SDS011;45412;54.472;18.464;2022-07-23T14:55:54;15.40;;;6.40;;
59587;SDS011;45412;54.472;18.464;2022-07-23T14:58:44;10.00;;;5.60;;
59587;SDS011;45412;54.472;18.464;2022-07-23T15:01:35;8.90;;;5.30;;
59587;SDS011;45412;54.472;18.464;2022-07-23T15:04:24;9.30;;;5.40;;
59587;SDS011;45412;54.472;18.464;2022-07-23T15:07:24;9.90;;;6.10;;
59587;SDS011;45412;54.472;18.464;2022-07-23T15:10:13;9.90;;;6.10;;
59587;SDS011;45412;54.472;18.464;2022-07-23T15:13:01;13.20;;;9.40;;
59587;SDS011;45412;54.472;18.464;2022-07-23T15:15:49;10.50;;;6.30;;
59587;SDS011;45412;54.472;18.464;2022-07-23T15:18:42;12.10;;;7.50;;
59587;SDS011;45412;54.472;18.464;2022-07-23T15:21:30;10.30;;;7.30;;
59587;SDS011;45412;54.472;18.464;2022-07-23T15:24:18;9.50;;;5.70;;
59587;SDS011;45412;54.472;18.464;2022-07-23T15:27:06;9.50;;;5.90;;
59587;SDS011;45412;54.472;18.464;2022-07-23T15:29:55;11.90;;;6.10;;
59587;SDS011;45412;54.472;18.464;2022-07-23T15:32:43;9.30;;;5.60;;
59587;SDS011;45412;54.472;18.464;2022-07-23T15:35:31;11.50;;;6.50;;
59587;SDS011;45412;54.472;18.464;2022-07-23T15:38:20;9.30;;;6.30;;
59587;SDS011;45412;54.472;18.464;2022-07-23T15:41:12;12.30;;;6.40;;
59587;SDS011;45412;54.472;18.464;2022-07-23T15:44:01;13.70;;;6.50;;
59587;SDS011;45412;54.472;18.464;2022-07-23T15:47:15;12.40;;;6.10;;
59587;SDS011;45412;54.472;18.464;2022-07-23T15:50:04;11.70;;;6.20;;
59587;SDS011;45412;54.472;18.464;2022-07-23T15:52:53;12.30;;;6.30;;
59587;SDS011;45412;54.472;18.464;2022-07-23T15:55:42;13.40;;;7.10;;
59587;SDS011;45412;54.472;18.464;2022-07-23T15:58:33;11.40;;;6.40;;
59587;SDS011;45412;54.472;18.464;2022-07-23T16:01:22;13.40;;;7.40;;
59587;SDS011;45412;54.472;18.464;2022-07-23T16:04:11;10.20;;;5.60;;
59587;SDS011;45412;54.472;18.464;2022-07-23T16:07:00;10.70;;;5.80;;
59587;SDS011;45412;54.472;18.464;2022-07-23T16:09:48;11.30;;;5.40;;
59587;SDS011;45412;54.472;18.464;2022-07-23T16:12:36;9.10;;;4.40;;
59587;SDS011;45412;54.472;18.464;2022-07-23T16:15:25;10.10;;;4.50;;
59587;SDS011;45412;54.472;18.464;2022-07-23T16:18:13;12.40;;;4.20;;
59587;SDS011;45412;54.472;18.464;2022-07-23T16:21:01;10.60;;;4.40;;
59587;SDS011;45412;54.472;18.464;2022-07-23T16:23:58;10.30;;;4.80;;
59587;SDS011;45412;54.472;18.464;2022-07-23T16:26:46;10.50;;;4.50;;
59587;SDS011;45412;54.472;18.464;2022-07-23T16:29:34;10.00;;;4.30;;
59587;SDS011;45412;54.472;18.464;2022-07-23T16:32:22;12.10;;;4.50;;
59587;SDS011;45412;54.472;18.464;2022-07-23T16:35:10;9.80;;;3.90;;
59587;SDS011;45412;54.472;18.464;2022-07-23T16:38:01;10.00;;;3.80;;
59587;SDS011;45412;54.472;18.464;2022-07-23T16:40:50;8.70;;;3.40;;
59587;SDS011;45412;54.472;18.464;2022-07-23T16:43:39;10.00;;;3.50;;
59587;SDS011;45412;54.472;18.464;2022-07-23T16:46:29;6.30;;;2.50;;
59587;SDS011;45412;54.472;18.464;2022-07-23T16:49:17;9.20;;;2.40;;
59587;SDS011;45412;54.472;18.464;2022-07-23T16:52:05;7.30;;;2.30;;
59587;SDS011;45412;54.472;18.464;2022-07-23T16:54:54;7.10;;;2.30;;
59587;SDS011;45412;54.472;18.464;2022-07-23T16:57:42;9.80;;;2.40;;
59587;SDS011;45412;54.472;18.464;2022-07-23T17:00:30;8.50;;;2.20;;
59587;SDS011;45412;54.472;18.464;2022-07-23T17:03:18;8.00;;;2.00;;
59587;SDS011;45412;54.472;18.464;2022-07-23T17:06:08;6.10;;;2.00;;
59587;SDS011;45412;54.472;18.464;2022-07-23T17:08:56;7.00;;;2.00;;
59587;SDS011;45412;54.472;18.464;2022-07-23T17:11:52;5.80;;;1.80;;
59587;SDS011;45412;54.472;18.464;2022-07-23T17:14:40;6.00;;;1.90;;